Time;durP1;ratioP1;P1;durP2;ratioP2;P2;SDS_P1;SDS_P2;PMS_P1;PMS_P2;Temp;Humidity;BMP_temperature;BMP_pressure;BME280_temperature;BME280_humidity;BME280_pressure;Samples;Min_cycle;Max_cycle;Signal;HPM_P1;HPM_P2
2023/04/19 00:00:42;;;;;;;11.30;8.03;;;10.80;99.90;;;;;;5072015;28;20220;-42
2023/04/19 00:03:09;;;;;;;9.07;7.93;;;10.80;99.90;;;;;;5089681;28;20175;-42
2023/04/19 00:05:37;;;;;;;8.60;7.70;;;10.80;99.90;;;;;;5088434;28;20170;-41
2023/04/19 00:08:06;;;;;;;9.70;8.23;;;10.80;99.90;;;;;;5072440;28;20176;-41
2023/04/19 00:10:32;;;;;;;9.07;8.00;;;10.70;99.90;;;;;;5090809;28;20244;-42
2023/04/19 00:12:58;;;;;;;8.93;7.97;;;10.70;99.90;;;;;;5072553;28;20195;-40
2023/04/19 00:15:24;;;;;;;9.47;8.47;;;10.70;99.90;;;;;;5090392;28;20189;-40
2023/04/19 00:17:50;;;;;;;9.63;8.60;;;10.70;99.90;;;;;;5089058;28;20226;-42
2023/04/19 00:20:16;;;;;;;10.60;7.90;;;10.60;99.90;;;;;;5090429;28;20305;-42
2023/04/19 00:22:41;;;;;;;8.40;7.50;;;10.60;99.90;;;;;;5072666;28;20180;-42
2023/04/19 00:25:07;;;;;;;10.13;8.10;;;10.60;99.90;;;;;;5091141;28;20174;-42
2023/04/19 00:27:33;;;;;;;10.17;8.30;;;10.60;99.90;;;;;;5072192;28;20173;-42
2023/04/19 00:29:59;;;;;;;9.00;7.67;;;10.60;99.90;;;;;;5074613;28;20254;-40
2023/04/19 00:32:25;;;;;;;9.10;7.77;;;10.60;99.90;;;;;;5077962;28;20185;-42
2023/04/19 00:34:51;;;;;;;10.97;8.20;;;10.50;99.90;;;;;;5083113;28;20198;-42
2023/04/19 00:37:17;;;;;;;10.30;8.80;;;10.50;99.90;;;;;;5074194;28;20211;-42
2023/04/19 00:39:43;;;;;;;9.87;7.70;;;10.50;99.90;;;;;;5058659;28;20215;-42
2023/04/19 00:42:08;;;;;;;9.20;8.20;;;10.50;99.90;;;;;;5094999;28;20184;-42
2023/04/19 00:44:34;;;;;;;8.20;7.17;;;10.50;99.90;;;;;;5070617;28;20296;-41
2023/04/19 00:47:00;;;;;;;10.13;8.70;;;10.40;99.90;;;;;;5080433;28;20202;-42
2023/04/19 00:49:26;;;;;;;8.77;7.87;;;10.40;99.90;;;;;;5059511;28;20228;-41
2023/04/19 00:51:52;;;;;;;9.63;8.53;;;10.50;99.90;;;;;;5094454;28;20206;-42
2023/04/19 00:54:19;;;;;;;11.87;8.10;;;10.40;99.90;;;;;;5076013;28;20178;-42
2023/04/19 00:56:48;;;;;;;9.67;8.60;;;10.50;99.90;;;;;;5094524;28;20181;-42
2023/04/19 00:59:16;;;;;;;10.30;8.40;;;10.50;99.90;;;;;;5093779;28;20215;-42
2023/04/19 01:01:42;;;;;;;8.90;8.00;;;10.50;99.90;;;;;;5093343;28;20250;-41
2023/04/19 01:04:08;;;;;;;10.50;8.37;;;10.50;99.90;;;;;;5058891;28;20182;-39
2023/04/19 01:06:34;;;;;;;11.07;8.23;;;10.50;99.90;;;;;;5074826;28;20187;-42
2023/04/19 01:09:00;;;;;;;11.87;9.10;;;10.40;99.90;;;;;;5075183;28;20197;-42
2023/04/19 01:11:27;;;;;;;10.43;8.73;;;10.40;99.90;;;;;;5092710;28;20184;-42
2023/04/19 01:13:54;;;;;;;13.10;10.10;;;10.40;99.90;;;;;;5075957;28;20189;-42
2023/04/19 01:16:20;;;;;;;10.57;8.67;;;10.30;99.90;;;;;;5075573;28;20188;-42
2023/04/19 01:18:48;;;;;;;9.33;8.23;;;10.30;99.90;;;;;;5075610;28;20322;-42
2023/04/19 01:21:14;;;;;;;9.67;8.17;;;10.30;99.90;;;;;;5075799;28;20308;-41
2023/04/19 01:23:40;;;;;;;10.53;8.90;;;10.30;99.90;;;;;;5074916;28;20225;-42
2023/04/19 01:26:06;;;;;;;9.73;7.93;;;10.20;99.90;;;;;;5075404;28;20281;-40
2023/04/19 01:28:32;;;;;;;10.23;8.50;;;10.20;99.90;;;;;;5072002;28;20174;-42
2023/04/19 01:30:57;;;;;;;9.90;8.80;;;10.20;99.90;;;;;;5075602;28;20192;-42
2023/04/19 01:33:25;;;;;;;10.47;8.73;;;10.30;99.90;;;;;;5075966;28;20177;-42
2023/04/19 01:35:51;;;;;;;11.60;9.03;;;10.30;99.90;;;;;;5071655;28;20757;-41
2023/04/19 01:38:17;;;;;;;10.57;8.57;;;10.30;99.90;;;;;;5074460;28;20661;-41
2023/04/19 01:40:43;;;;;;;14.30;8.70;;;10.20;99.90;;;;;;5074547;28;20210;-41
2023/04/19 01:43:14;;;;;;;11.90;9.43;;;10.20;99.90;;;;;;5075370;28;20241;-42
2023/04/19 01:45:40;;;;;;;14.17;9.00;;;10.20;99.90;;;;;;5074613;28;20189;-41
2023/04/19 01:48:06;;;;;;;9.73;8.73;;;10.20;99.90;;;;;;5091912;28;20168;-41
2023/04/19 01:50:33;;;;;;;9.80;8.50;;;10.20;99.90;;;;;;5073411;28;20199;-42
2023/04/19 01:52:59;;;;;;;10.10;8.93;;;10.20;99.90;;;;;;5075403;28;20190;-40
2023/04/19 01:55:25;;;;;;;11.00;8.37;;;10.20;99.90;;;;;;5074744;28;20180;-40
2023/04/19 01:57:53;;;;;;;12.13;8.93;;;10.20;99.90;;;;;;5073774;28;20177;-39
2023/04/19 02:00:19;;;;;;;9.27;8.20;;;10.20;99.90;;;;;;5058370;28;20198;-41
2023/04/19 02:02:46;;;;;;;10.47;9.07;;;10.20;99.90;;;;;;5058530;28;20230;-41
2023/04/19 02:05:13;;;;;;;11.63;8.70;;;10.20;99.90;;;;;;5074089;28;20180;-39
2023/04/19 02:07:39;;;;;;;11.40;9.43;;;10.20;99.90;;;;;;5092686;28;20179;-40
2023/04/19 02:10:08;;;;;;;10.97;8.90;;;10.20;99.90;;;;;;5075360;28;20253;-41
2023/04/19 02:12:35;;;;;;;11.70;9.17;;;10.20;99.90;;;;;;5074736;28;20172;-38
2023/04/19 02:15:03;;;;;;;11.40;9.53;;;10.20;99.90;;;;;;5074619;28;20174;-41
2023/04/19 02:17:34;;;;;;;11.17;8.53;;;10.20;99.90;;;;;;5074988;28;20183;-40
2023/04/19 02:20:00;;;;;;;10.47;8.87;;;10.10;99.90;;;;;;5071075;28;20209;-38
2023/04/19 02:22:26;;;;;;;10.83;9.00;;;10.10;99.90;;;;;;5052091;28;20182;-39
2023/04/19 02:24:52;;;;;;;10.70;8.73;;;10.10;99.90;;;;;;5058115;28;20212;-40
2023/04/19 02:27:18;;;;;;;9.83;8.77;;;10.10;99.90;;;;;;5091309;28;20263;-41
2023/04/19 02:29:44;;;;;;;10.40;8.80;;;10.20;99.90;;;;;;5090923;28;20312;-40
2023/04/19 02:32:13;;;;;;;10.80;9.23;;;10.20;99.90;;;;;;5074566;28;20249;-41
2023/04/19 02:34:39;;;;;;;9.60;8.60;;;10.20;99.90;;;;;;5090877;28;20198;-42
2023/04/19 02:37:04;;;;;;;12.53;9.30;;;10.20;99.90;;;;;;5088805;28;20173;-40
2023/04/19 02:39:30;;;;;;;10.50;8.93;;;10.10;99.90;;;;;;5092610;28;20201;-38
2023/04/19 02:41:56;;;;;;;12.13;9.33;;;10.10;99.90;;;;;;5075346;28;20176;-41
2023/04/19 02:44:22;;;;;;;9.87;8.77;;;10.10;99.90;;;;;;5075242;28;20174;-40
2023/04/19 02:46:49;;;;;;;11.67;9.80;;;10.10;99.90;;;;;;5055483;28;20261;-41
2023/04/19 02:49:15;;;;;;;12.37;10.00;;;10.10;99.90;;;;;;5092805;28;20200;-39
2023/04/19 02:51:41;;;;;;;12.10;9.17;;;10.10;99.90;;;;;;5074905;28;20180;-41
2023/04/19 02:54:07;;;;;;;11.73;9.63;;;10.10;99.90;;;;;;5057882;28;20226;-40
2023/04/19 02:56:33;;;;;;;11.40;9.27;;;10.00;99.90;;;;;;5074881;28;20173;-41
2023/04/19 02:59:01;;;;;;;10.87;9.20;;;10.00;99.90;;;;;;5074513;28;20197;-42
2023/04/19 03:01:27;;;;;;;12.47;8.73;;;10.10;99.90;;;;;;5074763;28;20165;-41
2023/04/19 03:03:53;;;;;;;11.53;9.23;;;10.00;99.90;;;;;;5074518;28;20172;-42
2023/04/19 03:06:19;;;;;;;10.87;9.00;;;10.00;99.90;;;;;;5074370;28;20184;-42
2023/04/19 03:08:45;;;;;;;12.90;9.90;;;10.00;99.90;;;;;;5068133;28;20169;-43
2023/04/19 03:11:13;;;;;;;10.13;8.60;;;10.00;99.90;;;;;;5074479;28;20181;-42
2023/04/19 03:13:39;;;;;;;13.80;10.00;;;10.00;99.90;;;;;;5054482;28;20185;-42
2023/04/19 03:16:06;;;;;;;13.10;9.90;;;10.00;99.90;;;;;;5072386;28;20157;-42
2023/04/19 03:18:32;;;;;;;13.57;10.77;;;9.90;99.90;;;;;;5070939;28;20176;-42
2023/04/19 03:21:00;;;;;;;13.10;9.43;;;9.90;99.90;;;;;;5054439;28;20212;-42
2023/04/19 03:23:30;;;;;;;14.80;10.50;;;9.80;99.90;;;;;;5057269;28;20176;-42
2023/04/19 03:25:58;;;;;;;12.60;10.10;;;9.70;99.90;;;;;;5074209;28;20176;-42
2023/04/19 03:28:34;;;;;;;12.57;10.20;;;9.70;99.90;;;;;;5074000;28;20180;-42
2023/04/19 03:31:29;;;;;;;12.00;9.87;;;9.70;99.90;;;;;;5076598;28;20173;-42
2023/04/19 03:33:55;;;;;;;14.27;11.37;;;9.60;99.90;;;;;;5090990;28;20215;-42
2023/04/19 03:36:27;;;;;;;13.47;10.67;;;9.60;99.90;;;;;;5069641;28;20181;-42
2023/04/19 03:38:53;;;;;;;12.53;11.07;;;9.60;99.90;;;;;;5072363;28;20196;-42
2023/04/19 03:41:25;;;;;;;14.33;10.27;;;9.50;99.90;;;;;;5084187;28;20283;-41
2023/04/19 03:44:12;;;;;;;12.27;10.50;;;9.50;99.90;;;;;;5088012;28;20178;-42
2023/04/19 03:46:42;;;;;;;12.97;10.20;;;9.50;99.90;;;;;;5086715;28;20184;-40
2023/04/19 03:49:08;;;;;;;12.13;10.03;;;9.50;99.90;;;;;;5055039;28;20188;-42
2023/04/19 03:51:36;;;;;;;14.90;11.20;;;9.50;99.90;;;;;;5079363;28;20169;-42
2023/04/19 03:54:02;;;;;;;12.80;10.57;;;9.50;99.90;;;;;;5047718;28;20181;-41
2023/04/19 03:56:29;;;;;;;11.83;10.23;;;9.50;99.90;;;;;;5089318;28;20172;-40
2023/04/19 03:58:54;;;;;;;12.40;10.70;;;9.40;99.90;;;;;;5052803;28;20203;-41
2023/04/19 04:01:23;;;;;;;13.80;11.33;;;9.40;99.90;;;;;;5071981;28;20657;-40
2023/04/19 04:03:49;;;;;;;15.87;11.57;;;9.50;99.90;;;;;;5055003;28;20255;-41
2023/04/19 04:06:16;;;;;;;14.30;11.83;;;9.40;99.90;;;;;;5073221;28;20225;-42
2023/04/19 04:08:42;;;;;;;14.97;11.17;;;9.50;99.90;;;;;;5068379;28;20259;-40
2023/04/19 04:11:08;;;;;;;13.40;11.10;;;9.50;99.90;;;;;;5054946;28;20183;-39
2023/04/19 04:13:34;;;;;;;13.60;10.80;;;9.50;99.90;;;;;;5052522;28;20274;-38
2023/04/19 04:16:11;;;;;;;15.37;11.63;;;9.50;99.90;;;;;;5054746;28;20677;-40
2023/04/19 04:18:41;;;;;;;16.13;11.57;;;9.50;99.90;;;;;;5057657;28;20272;-38
2023/04/19 04:21:12;;;;;;;15.40;11.37;;;9.40;99.90;;;;;;5053909;28;20212;-40
2023/04/19 04:23:42;;;;;;;14.70;11.57;;;9.50;99.90;;;;;;5070785;28;20277;-39
2023/04/19 04:26:18;;;;;;;15.30;11.20;;;9.50;99.90;;;;;;5056102;28;20172;-42
2023/04/19 04:29:18;;;;;;;13.80;11.63;;;9.50;99.90;;;;;;5051390;28;20203;-41
2023/04/19 04:31:45;;;;;;;15.13;11.30;;;9.50;99.90;;;;;;5071476;28;20653;-41
2023/04/19 04:34:12;;;;;;;15.23;11.90;;;9.50;99.90;;;;;;5068812;28;20178;-39
2023/04/19 04:36:48;;;;;;;16.43;13.03;;;9.40;99.90;;;;;;5069600;28;20229;-41
2023/04/19 04:39:14;;;;;;;14.37;11.23;;;9.40;99.90;;;;;;5071994;28;20242;-42
2023/04/19 04:41:42;;;;;;;14.43;12.10;;;9.30;99.90;;;;;;5053289;28;20214;-41
2023/04/19 04:44:08;;;;;;;13.37;11.80;;;9.30;99.90;;;;;;5072525;28;20176;-41
2023/04/19 04:46:35;;;;;;;15.90;12.20;;;9.30;99.90;;;;;;5056481;28;20216;-42
2023/04/19 04:49:02;;;;;;;18.17;13.40;;;9.30;99.90;;;;;;5087452;28;20222;-39
2023/04/19 04:51:28;;;;;;;17.07;11.93;;;9.30;99.90;;;;;;5072050;28;20232;-41
2023/04/19 04:53:55;;;;;;;17.13;12.47;;;9.30;99.90;;;;;;5071904;28;20276;-41
2023/04/19 04:56:22;;;;;;;15.50;12.70;;;9.20;99.90;;;;;;5072327;28;20183;-41
2023/04/19 04:58:48;;;;;;;16.53;12.00;;;9.30;99.90;;;;;;5054768;28;20288;-38
2023/04/19 05:01:22;;;;;;;17.30;13.53;;;9.30;99.90;;;;;;5072104;28;20324;-42
2023/04/19 05:03:50;;;;;;;16.43;12.63;;;9.30;99.90;;;;;;5052379;28;20182;-42
2023/04/19 05:06:18;;;;;;;16.23;13.10;;;9.30;99.90;;;;;;5061296;28;20178;-42
2023/04/19 05:08:44;;;;;;;15.80;12.97;;;9.30;99.90;;;;;;5072002;28;20226;-41
2023/04/19 05:11:19;;;;;;;15.97;12.23;;;9.30;99.90;;;;;;5068935;28;20187;-40
2023/04/19 05:13:45;;;;;;;17.00;11.70;;;9.30;99.90;;;;;;5087834;28;20188;-41
2023/04/19 05:16:11;;;;;;;15.63;12.77;;;9.30;99.90;;;;;;5084364;28;20263;-42
2023/04/19 05:18:40;;;;;;;17.60;12.97;;;9.40;99.90;;;;;;5059727;28;20268;-39
2023/04/19 05:21:09;;;;;;;16.23;12.33;;;9.40;99.90;;;;;;5075338;28;20282;-41
2023/04/19 05:23:36;;;;;;;15.73;12.43;;;9.50;99.90;;;;;;5073014;28;20177;-39
2023/04/19 05:26:03;;;;;;;14.93;12.90;;;9.50;99.90;;;;;;5058563;28;20238;-41
2023/04/19 05:28:29;;;;;;;20.90;13.27;;;9.50;99.90;;;;;;5075064;28;20169;-41
2023/04/19 05:31:04;;;;;;;14.63;12.00;;;9.50;99.90;;;;;;5075085;28;20203;-42
2023/04/19 05:33:37;;;;;;;19.07;12.77;;;9.50;99.90;;;;;;5058722;28;20180;-42
2023/04/19 05:36:04;;;;;;;16.53;13.37;;;9.60;99.90;;;;;;5075351;28;20199;-39
2023/04/19 05:38:29;;;;;;;17.17;13.33;;;9.60;99.90;;;;;;5057718;28;20185;-41
2023/04/19 05:40:58;;;;;;;18.17;13.57;;;9.70;99.90;;;;;;5092548;28;20202;-42
2023/04/19 05:43:24;;;;;;;14.60;11.90;;;9.70;99.90;;;;;;5088760;28;20203;-41
2023/04/19 05:45:49;;;;;;;16.93;13.17;;;9.70;99.90;;;;;;5091311;28;20203;-42
2023/04/19 05:48:15;;;;;;;18.03;12.63;;;9.70;99.90;;;;;;5092186;28;20180;-41
2023/04/19 05:50:56;;;;;;;17.23;12.73;;;9.70;99.90;;;;;;5075430;28;20211;-39
2023/04/19 05:53:42;;;;;;;19.40;13.53;;;9.80;99.90;;;;;;5053341;28;20193;-40
2023/04/19 05:56:08;;;;;;;16.63;12.97;;;9.80;99.90;;;;;;5065125;28;20181;-40
2023/04/19 05:58:33;;;;;;;15.60;12.67;;;9.80;99.90;;;;;;5058937;28;20165;-38
2023/04/19 06:00:59;;;;;;;15.77;12.93;;;9.80;99.90;;;;;;5071386;28;20608;-41
2023/04/19 06:03:25;;;;;;;17.30;12.27;;;9.90;99.90;;;;;;5071992;28;20177;-41
2023/04/19 06:05:52;;;;;;;15.90;12.87;;;9.90;99.90;;;;;;5074837;28;20169;-41
2023/04/19 06:08:17;;;;;;;17.87;12.97;;;9.80;99.90;;;;;;5064978;28;20278;-42
2023/04/19 06:10:46;;;;;;;16.93;12.60;;;9.80;99.90;;;;;;5070801;28;20208;-42
2023/04/19 06:13:13;;;;;;;17.50;11.97;;;9.90;99.90;;;;;;5075341;28;20199;-42
2023/04/19 06:15:41;;;;;;;18.27;13.27;;;9.90;99.90;;;;;;5073662;28;20176;-41
2023/04/19 06:18:08;;;;;;;16.17;12.77;;;9.90;99.90;;;;;;5056758;28;20185;-38
2023/04/19 06:20:38;;;;;;;18.17;13.40;;;9.90;99.90;;;;;;5091443;28;20206;-41
2023/04/19 06:23:06;;;;;;;15.60;12.43;;;9.90;99.90;;;;;;5091695;28;20176;-40
2023/04/19 06:25:32;;;;;;;16.13;13.13;;;10.00;99.90;;;;;;5074133;28;20381;-41
2023/04/19 06:27:58;;;;;;;14.90;12.20;;;9.90;99.90;;;;;;5090884;28;20185;-39
2023/04/19 06:30:24;;;;;;;18.47;13.33;;;10.00;99.90;;;;;;5072150;28;20255;-42
2023/04/19 06:32:50;;;;;;;16.93;12.87;;;10.00;99.90;;;;;;5073359;28;20184;-41
2023/04/19 06:35:16;;;;;;;16.93;13.20;;;10.10;99.90;;;;;;5089457;28;20181;-41
2023/04/19 06:37:41;;;;;;;16.47;12.00;;;10.00;99.90;;;;;;5084478;28;20204;-37
2023/04/19 06:40:08;;;;;;;19.10;12.80;;;10.00;99.90;;;;;;5071792;28;20209;-40
2023/04/19 06:42:34;;;;;;;16.07;13.23;;;10.10;99.90;;;;;;5072620;28;20262;-40
2023/04/19 06:45:00;;;;;;;15.43;12.20;;;10.10;99.90;;;;;;5073911;28;20233;-39
2023/04/19 06:47:26;;;;;;;17.00;13.00;;;10.30;99.90;;;;;;5054862;28;20185;-42
2023/04/19 06:49:52;;;;;;;16.83;12.83;;;10.20;99.90;;;;;;5091701;28;20725;-40
2023/04/19 06:52:18;;;;;;;15.47;11.97;;;10.30;99.90;;;;;;5092775;28;20176;-41
2023/04/19 06:54:48;;;;;;;17.47;12.97;;;10.20;99.90;;;;;;5092498;28;20189;-41
2023/04/19 06:57:15;;;;;;;15.47;12.93;;;10.30;99.90;;;;;;5073770;28;20184;-41
2023/04/19 06:59:41;;;;;;;15.00;11.40;;;10.40;99.90;;;;;;5073672;28;20210;-42
2023/04/19 07:02:07;;;;;;;15.03;12.00;;;10.40;99.90;;;;;;5092593;28;20169;-40
2023/04/19 07:04:33;;;;;;;16.47;11.73;;;10.50;99.90;;;;;;5090753;28;20219;-42
2023/04/19 07:06:59;;;;;;;14.80;11.90;;;10.50;99.90;;;;;;5078563;28;20188;-40
2023/04/19 07:09:25;;;;;;;18.00;13.00;;;10.50;99.90;;;;;;5085369;28;20194;-40
2023/04/19 07:11:51;;;;;;;17.70;13.47;;;10.60;99.90;;;;;;5090502;28;20225;-42
2023/04/19 07:14:18;;;;;;;15.87;12.33;;;10.50;99.90;;;;;;5086314;28;20172;-40
2023/04/19 07:16:45;;;;;;;16.93;11.87;;;10.60;99.90;;;;;;5074145;28;20177;-40
2023/04/19 07:19:12;;;;;;;17.10;12.30;;;10.50;99.90;;;;;;5056840;28;20246;-42
2023/04/19 07:21:38;;;;;;;14.10;11.53;;;10.50;99.90;;;;;;5071005;28;20181;-42
2023/04/19 07:24:05;;;;;;;16.03;12.10;;;10.60;99.90;;;;;;5069519;28;20181;-42
2023/04/19 07:26:32;;;;;;;16.63;12.53;;;10.60;99.90;;;;;;5081500;28;20178;-42
2023/04/19 07:28:58;;;;;;;15.03;11.70;;;10.80;99.90;;;;;;5085257;28;20213;-41
2023/04/19 07:31:24;;;;;;;13.67;11.13;;;10.70;99.90;;;;;;5087353;28;20278;-42
2023/04/19 07:33:51;;;;;;;12.33;10.77;;;10.80;99.90;;;;;;5089546;28;20233;-40
2023/04/19 07:36:17;;;;;;;15.13;12.20;;;10.90;99.90;;;;;;5069188;28;20179;-42
2023/04/19 07:38:43;;;;;;;12.20;10.87;;;10.90;99.90;;;;;;5071687;28;20186;-42
2023/04/19 07:41:09;;;;;;;14.57;11.90;;;10.90;99.90;;;;;;5082530;28;20734;-41
2023/04/19 07:43:36;;;;;;;11.83;10.40;;;10.90;99.90;;;;;;5085763;28;20187;-42
2023/04/19 07:46:12;;;;;;;14.60;12.03;;;10.90;99.90;;;;;;5086142;28;20279;-40
2023/04/19 07:48:39;;;;;;;13.30;10.80;;;10.80;99.90;;;;;;5084579;28;20180;-42
2023/04/19 07:51:13;;;;;;;14.03;11.60;;;10.80;99.90;;;;;;5069904;28;20183;-42
2023/04/19 07:53:43;;;;;;;15.70;11.77;;;10.80;99.90;;;;;;5070215;28;20185;-42
2023/04/19 07:56:10;;;;;;;14.70;11.70;;;10.90;99.90;;;;;;5069718;28;20179;-42
2023/04/19 07:58:38;;;;;;;14.30;11.60;;;10.90;99.90;;;;;;5052975;28;20182;-42
2023/04/19 08:01:04;;;;;;;14.77;11.60;;;10.90;99.90;;;;;;5071072;28;20206;-42
2023/04/19 08:03:32;;;;;;;12.27;10.80;;;10.90;99.90;;;;;;5070757;28;20183;-39
2023/04/19 08:06:00;;;;;;;15.83;12.67;;;10.90;99.90;;;;;;5062820;28;20185;-42
2023/04/19 08:08:27;;;;;;;14.53;11.27;;;11.00;99.90;;;;;;5066951;28;20242;-41
2023/04/19 08:10:55;;;;;;;12.87;10.40;;;11.00;99.90;;;;;;5054407;28;20182;-42
2023/04/19 08:13:21;;;;;;;13.37;10.97;;;11.10;99.90;;;;;;5090471;28;20338;-42
2023/04/19 08:15:47;;;;;;;14.87;10.77;;;11.10;99.90;;;;;;5065340;28;20204;-42
2023/04/19 08:18:13;;;;;;;13.70;10.43;;;11.20;99.90;;;;;;5084298;28;20240;-42
2023/04/19 08:20:42;;;;;;;12.53;9.93;;;11.20;99.90;;;;;;5085554;28;20201;-42
2023/04/19 08:23:10;;;;;;;13.10;10.50;;;11.30;99.90;;;;;;5082529;28;20176;-42
2023/04/19 08:25:35;;;;;;;13.30;9.80;;;11.40;99.90;;;;;;5087415;28;20182;-42
2023/04/19 08:28:01;;;;;;;14.93;10.40;;;11.50;99.90;;;;;;5069668;28;20217;-42
2023/04/19 08:30:27;;;;;;;12.13;9.93;;;11.50;99.90;;;;;;5064609;28;20197;-41
2023/04/19 08:32:53;;;;;;;13.23;9.67;;;11.60;99.90;;;;;;5076562;28;20184;-42
2023/04/19 08:35:20;;;;;;;12.17;9.80;;;11.60;99.90;;;;;;5072596;28;20199;-42
2023/04/19 08:37:47;;;;;;;12.27;9.93;;;11.70;99.90;;;;;;5069595;28;20190;-41
2023/04/19 08:40:13;;;;;;;13.57;9.37;;;11.70;99.90;;;;;;5089356;28;20203;-41
2023/04/19 08:42:39;;;;;;;13.63;10.07;;;11.80;99.90;;;;;;5089195;28;20180;-41
2023/04/19 08:45:06;;;;;;;12.40;10.30;;;11.90;99.90;;;;;;5050076;28;20184;-40
2023/04/19 08:47:34;;;;;;;10.90;9.27;;;11.80;99.90;;;;;;5089272;28;20169;-41
2023/04/19 08:50:03;;;;;;;10.77;8.80;;;11.90;99.90;;;;;;5070365;28;20210;-41
2023/04/19 08:52:32;;;;;;;12.07;9.13;;;11.90;99.90;;;;;;5092311;28;20174;-40
2023/04/19 08:55:00;;;;;;;11.43;9.27;;;11.90;99.90;;;;;;5089057;28;20195;-42
2023/04/19 08:57:31;;;;;;;10.90;8.67;;;12.00;99.90;;;;;;5061265;28;20188;-42
2023/04/19 09:00:01;;;;;;;10.37;8.80;;;12.10;99.90;;;;;;5071372;28;20209;-42
2023/04/19 09:02:27;;;;;;;12.17;9.47;;;12.10;99.90;;;;;;5059760;28;20183;-41
2023/04/19 09:04:52;;;;;;;11.27;8.87;;;12.00;99.90;;;;;;5068226;28;20187;-41
2023/04/19 09:07:23;;;;;;;12.60;10.07;;;12.10;99.90;;;;;;5058322;28;20183;-41
2023/04/19 09:10:06;;;;;;;10.70;9.07;;;12.20;99.90;;;;;;5087789;28;20203;-42
2023/04/19 09:12:34;;;;;;;10.60;8.63;;;12.30;99.90;;;;;;5091896;28;20692;-42
2023/04/19 09:15:02;;;;;;;14.23;9.43;;;12.40;99.90;;;;;;5068224;28;20195;-40
2023/04/19 09:17:32;;;;;;;10.97;8.87;;;12.40;99.90;;;;;;5070303;28;20270;-42
2023/04/19 09:19:58;;;;;;;11.67;9.40;;;12.50;99.90;;;;;;5072642;28;20208;-42
2023/04/19 09:22:25;;;;;;;10.27;8.43;;;12.60;99.90;;;;;;5073875;28;20236;-41
2023/04/19 09:24:54;;;;;;;10.30;8.50;;;12.60;99.90;;;;;;5065450;28;20174;-41
2023/04/19 09:27:28;;;;;;;11.00;8.77;;;12.70;99.90;;;;;;5071985;28;20184;-41
2023/04/19 09:30:01;;;;;;;12.17;9.47;;;12.80;99.90;;;;;;5089959;28;20211;-42
2023/04/19 09:32:28;;;;;;;12.20;9.57;;;12.90;99.90;;;;;;5066330;28;20177;-41
2023/04/19 09:34:58;;;;;;;10.53;9.10;;;12.90;99.90;;;;;;5091892;28;20180;-42
2023/04/19 09:37:25;;;;;;;10.47;8.67;;;12.80;99.90;;;;;;5066501;28;20180;-42
2023/04/19 09:39:52;;;;;;;11.27;8.93;;;12.90;99.90;;;;;;5071626;28;20292;-41
2023/04/19 09:42:19;;;;;;;9.70;8.37;;;13.00;99.90;;;;;;5091703;28;20181;-42
2023/04/19 09:45:04;;;;;;;12.90;9.80;;;13.10;99.90;;;;;;5091763;28;20176;-41
2023/04/19 09:47:30;;;;;;;12.30;9.57;;;13.10;99.90;;;;;;5074401;28;20183;-42
2023/04/19 09:50:09;;;;;;;10.53;9.07;;;13.10;99.90;;;;;;5091695;28;20207;-41
2023/04/19 09:52:35;;;;;;;9.53;8.53;;;13.10;99.90;;;;;;5073490;28;20187;-42
2023/04/19 09:55:03;;;;;;;9.70;8.70;;;13.00;99.90;;;;;;5073247;28;20275;-40
2023/04/19 09:57:31;;;;;;;10.00;8.57;;;13.00;99.90;;;;;;5073682;28;20177;-42
2023/04/19 10:00:00;;;;;;;12.13;9.73;;;13.00;99.90;;;;;;5073783;28;20242;-41
2023/04/19 10:02:32;;;;;;;9.80;7.63;;;13.10;99.90;;;;;;5069445;28;20222;-42
2023/04/19 10:04:58;;;;;;;9.37;7.80;;;13.10;99.90;;;;;;5073357;28;20165;-40
2023/04/19 10:07:25;;;;;;;9.53;8.20;;;13.30;99.90;;;;;;5071922;28;20263;-39
2023/04/19 10:09:54;;;;;;;11.13;8.80;;;13.40;99.90;;;;;;5069822;28;20214;-39
2023/04/19 10:12:25;;;;;;;9.50;8.50;;;13.50;99.90;;;;;;5091986;28;20184;-41
2023/04/19 10:14:53;;;;;;;10.87;8.67;;;13.60;99.90;;;;;;5088104;28;20176;-41
2023/04/19 10:17:19;;;;;;;10.90;9.17;;;13.70;99.90;;;;;;5073634;28;20655;-39
2023/04/19 10:19:46;;;;;;;9.67;8.13;;;13.80;99.90;;;;;;5072814;28;20203;-41
2023/04/19 10:22:13;;;;;;;8.37;7.50;;;13.90;99.90;;;;;;5072113;28;20173;-41
2023/04/19 10:24:38;;;;;;;8.20;6.80;;;14.10;99.90;;;;;;5092037;28;20168;-38
2023/04/19 10:27:12;;;;;;;9.97;8.00;;;14.20;99.90;;;;;;5071765;28;20175;-42
2023/04/19 10:29:54;;;;;;;9.00;7.60;;;14.40;99.90;;;;;;5088424;28;20212;-41
2023/04/19 10:32:20;;;;;;;8.87;7.17;;;14.70;99.90;;;;;;5065644;28;20208;-39
2023/04/19 10:34:47;;;;;;;8.10;7.30;;;15.10;99.90;;;;;;5067908;28;20182;-42
2023/04/19 10:37:13;;;;;;;8.63;7.73;;;15.40;99.90;;;;;;5072575;28;20180;-43
2023/04/19 10:39:40;;;;;;;8.63;7.33;;;15.70;99.90;;;;;;5084567;28;20222;-41
2023/04/19 10:42:06;;;;;;;7.07;6.30;;;16.00;99.90;;;;;;5083566;28;20178;-40
2023/04/19 10:44:32;;;;;;;8.03;7.00;;;16.30;99.90;;;;;;5086783;28;20291;-40
2023/04/19 10:46:58;;;;;;;8.13;7.32;;;16.60;99.90;;;;;;5070268;28;20198;-41
2023/04/19 10:49:27;;;;;;;8.65;7.45;;;16.70;99.90;;;;;;5069956;28;20310;-40
2023/04/19 10:51:57;;;;;;;7.65;6.90;;;16.70;99.90;;;;;;5089531;28;20172;-40
2023/04/19 10:54:34;;;;;;;8.80;6.90;;;16.60;99.90;;;;;;5088230;28;20645;-41
2023/04/19 10:57:10;;;;;;;7.95;7.10;;;16.50;99.90;;;;;;5089820;28;20225;-40
2023/04/19 10:59:41;;;;;;;7.53;6.75;;;16.40;99.90;;;;;;5071813;28;20196;-42
2023/04/19 11:02:23;;;;;;;9.82;6.28;;;16.40;99.90;;;;;;5086928;22;20345;-39
2023/04/19 11:04:49;;;;;;;7.28;6.40;;;16.30;99.90;;;;;;5108108;28;20179;-39
2023/04/19 11:07:17;;;;;;;7.53;6.72;;;16.20;99.90;;;;;;5108834;27;20180;-39
2023/04/19 11:09:48;;;;;;;7.33;6.63;;;16.10;99.90;;;;;;5093572;28;20195;-37
2023/04/19 11:12:16;;;;;;;9.33;6.87;;;15.90;99.90;;;;;;5111982;27;20199;-41
2023/04/19 11:14:47;;;;;;;8.17;6.67;;;15.70;99.90;;;;;;5102828;28;20253;-39
2023/04/19 11:17:24;;;;;;;9.13;6.70;;;15.70;99.90;;;;;;5105361;27;20175;-37
2023/04/19 11:20:05;;;;;;;7.78;6.40;;;15.70;99.90;;;;;;5087461;28;20286;-38
2023/04/19 11:22:37;;;;;;;7.13;6.27;;;15.60;99.90;;;;;;5090317;28;20214;-38
2023/04/19 11:25:15;;;;;;;7.10;6.40;;;15.50;99.90;;;;;;5092488;28;20183;-39
2023/04/19 11:27:43;;;;;;;9.20;6.73;;;15.40;99.90;;;;;;5105487;28;20176;-38
2023/04/19 11:30:18;;;;;;;6.90;6.17;;;15.30;99.90;;;;;;5112345;28;20179;-37
2023/04/19 11:32:46;;;;;;;6.90;5.57;;;15.20;99.90;;;;;;5111527;28;20184;-40
2023/04/19 11:35:12;;;;;;;9.77;7.90;;;15.10;99.90;;;;;;5105377;28;20190;-38
2023/04/19 11:37:38;;;;;;;12.60;8.40;;;15.00;99.90;;;;;;5087476;28;20176;-39
2023/04/19 11:40:08;;;;;;;7.50;6.33;;;14.80;99.90;;;;;;5093670;28;20204;-39
2023/04/19 11:42:35;;;;;;;9.30;8.20;;;14.40;99.90;;;;;;5091282;28;20250;-39
2023/04/19 11:45:01;;;;;;;8.37;7.43;;;14.10;99.90;;;;;;5078291;28;20238;-38
2023/04/19 11:47:28;;;;;;;10.93;8.37;;;13.50;99.90;;;;;;5087080;28;20181;-40
2023/04/19 11:49:57;;;;;;;9.53;7.93;;;13.10;99.90;;;;;;5088173;28;20249;-38
2023/04/19 11:52:25;;;;;;;10.50;7.87;;;12.90;99.90;;;;;;5109301;28;20204;-39
2023/04/19 11:54:54;;;;;;;10.57;8.00;;;12.60;99.90;;;;;;5092391;28;20184;-38
2023/04/19 11:57:30;;;;;;;9.90;7.87;;;12.70;99.90;;;;;;5077745;28;20180;-39
2023/04/19 12:00:10;;;;;;;9.43;7.83;;;12.80;99.90;;;;;;5111325;28;20211;-38
2023/04/19 12:02:41;;;;;;;9.27;8.23;;;12.90;99.90;;;;;;5093149;28;20250;-38
2023/04/19 12:05:16;;;;;;;11.23;7.23;;;12.90;99.90;;;;;;5092583;28;20179;-38
2023/04/19 12:08:01;;;;;;;7.77;6.80;;;13.00;99.90;;;;;;5102991;28;20228;-40
2023/04/19 12:10:27;;;;;;;9.43;7.10;;;13.00;99.90;;;;;;5091890;28;20187;-39
2023/04/19 12:12:53;;;;;;;8.37;7.13;;;12.90;99.90;;;;;;5092444;28;20258;-37
2023/04/19 12:15:19;;;;;;;9.60;7.20;;;12.70;99.90;;;;;;5093108;28;20180;-38
2023/04/19 12:17:59;;;;;;;9.57;6.83;;;12.60;99.90;;;;;;5100954;28;20257;-37
2023/04/19 12:20:33;;;;;;;8.87;7.13;;;12.70;99.90;;;;;;5105543;28;20231;-37
2023/04/19 12:22:59;;;;;;;9.50;7.33;;;12.70;99.90;;;;;;5089045;28;20233;-37
2023/04/19 12:25:33;;;;;;;8.40;7.30;;;12.60;99.90;;;;;;5089908;28;20202;-39
2023/04/19 12:28:00;;;;;;;7.70;6.70;;;12.60;99.90;;;;;;5080741;28;20265;-39
2023/04/19 12:30:26;;;;;;;10.23;7.73;;;12.70;99.90;;;;;;5085333;28;20277;-37
2023/04/19 12:32:54;;;;;;;9.63;7.73;;;12.50;99.90;;;;;;5090910;28;20199;-37
2023/04/19 12:35:25;;;;;;;9.17;7.23;;;12.60;99.90;;;;;;5109217;28;20627;-39
2023/04/19 12:37:56;;;;;;;8.80;7.60;;;12.60;99.90;;;;;;5085857;28;20187;-39
2023/04/19 12:40:23;;;;;;;7.97;6.60;;;12.60;99.90;;;;;;5092007;28;20237;-39
2023/04/19 12:42:49;;;;;;;8.83;7.23;;;12.60;99.90;;;;;;5092086;28;20196;-37